sensor_id;sensor_type;location;lat;lon;timestamp;P1;durP1;ratioP1;P2;durP2;ratioP2
38859;SDS011;24609;48.316;16.174;2023-01-30T00:01:42;9.73;;;5.45;;
38859;SDS011;24609;48.316;16.174;2023-01-30T00:04:09;15.25;;;8.48;;
38859;SDS011;24609;48.316;16.174;2023-01-30T00:06:41;13.02;;;8.00;;
38859;SDS011;24609;48.316;16.174;2023-01-30T00:09:08;11.60;;;5.65;;
38859;SDS011;24609;48.316;16.174;2023-01-30T00:11:37;15.38;;;5.65;;
38859;SDS011;24609;48.316;16.174;2023-01-30T00:14:03;13.50;;;6.70;;
38859;SDS011;24609;48.316;16.174;2023-01-30T00:16:28;9.48;;;5.95;;
38859;SDS011;24609;48.316;16.174;2023-01-30T00:18:54;11.05;;;4.90;;
38859;SDS011;24609;48.316;16.174;2023-01-30T00:21:20;12.88;;;6.57;;
38859;SDS011;24609;48.316;16.174;2023-01-30T00:23:45;9.45;;;5.70;;
38859;SDS011;24609;48.316;16.174;2023-01-30T00:26:11;12.95;;;5.55;;
38859;SDS011;24609;48.316;16.174;2023-01-30T00:28:38;13.30;;;5.75;;
38859;SDS011;24609;48.316;16.174;2023-01-30T00:31:04;14.70;;;5.65;;
38859;SDS011;24609;48.316;16.174;2023-01-30T00:33:30;16.77;;;6.38;;
38859;SDS011;24609;48.316;16.174;2023-01-30T00:35:56;11.68;;;7.28;;
38859;SDS011;24609;48.316;16.174;2023-01-30T00:38:22;12.25;;;6.55;;
38859;SDS011;24609;48.316;16.174;2023-01-30T00:40:48;13.23;;;7.82;;
38859;SDS011;24609;48.316;16.174;2023-01-30T00:43:15;14.18;;;6.50;;
38859;SDS011;24609;48.316;16.174;2023-01-30T00:46:01;10.68;;;6.25;;
38859;SDS011;24609;48.316;16.174;2023-01-30T00:48:47;11.77;;;6.97;;
38859;SDS011;24609;48.316;16.174;2023-01-30T00:51:13;15.27;;;5.97;;
38859;SDS011;24609;48.316;16.174;2023-01-30T00:53:39;10.73;;;5.72;;
38859;SDS011;24609;48.316;16.174;2023-01-30T00:56:04;16.30;;;6.45;;
38859;SDS011;24609;48.316;16.174;2023-01-30T00:58:31;10.13;;;5.65;;
38859;SDS011;24609;48.316;16.174;2023-01-30T01:00:57;10.73;;;5.85;;
38859;SDS011;24609;48.316;16.174;2023-01-30T01:03:23;17.83;;;7.03;;
38859;SDS011;24609;48.316;16.174;2023-01-30T01:05:49;12.93;;;6.95;;
38859;SDS011;24609;48.316;16.174;2023-01-30T01:08:14;11.68;;;6.85;;
38859;SDS011;24609;48.316;16.174;2023-01-30T01:10:40;12.35;;;6.75;;
38859;SDS011;24609;48.316;16.174;2023-01-30T01:13:06;10.60;;;6.72;;
38859;SDS011;24609;48.316;16.174;2023-01-30T01:15:32;19.00;;;8.10;;
38859;SDS011;24609;48.316;16.174;2023-01-30T01:17:58;9.32;;;5.88;;
38859;SDS011;24609;48.316;16.174;2023-01-30T01:20:24;12.43;;;5.85;;
38859;SDS011;24609;48.316;16.174;2023-01-30T01:22:53;13.25;;;6.43;;
38859;SDS011;24609;48.316;16.174;2023-01-30T01:25:20;27.23;;;9.02;;
38859;SDS011;24609;48.316;16.174;2023-01-30T01:27:46;9.82;;;6.50;;
38859;SDS011;24609;48.316;16.174;2023-01-30T01:30:13;18.45;;;7.85;;
38859;SDS011;24609;48.316;16.174;2023-01-30T01:32:38;13.48;;;6.88;;
38859;SDS011;24609;48.316;16.174;2023-01-30T01:35:04;13.05;;;7.88;;
38859;SDS011;24609;48.316;16.174;2023-01-30T01:37:30;11.90;;;6.72;;
38859;SDS011;24609;48.316;16.174;2023-01-30T01:39:56;10.02;;;6.45;;
38859;SDS011;24609;48.316;16.174;2023-01-30T01:42:40;9.35;;;5.40;;
38859;SDS011;24609;48.316;16.174;2023-01-30T01:47:45;12.18;;;7.55;;
38859;SDS011;24609;48.316;16.174;2023-01-30T01:50:16;17.65;;;7.80;;
38859;SDS011;24609;48.316;16.174;2023-01-30T01:52:45;10.07;;;5.53;;
38859;SDS011;24609;48.316;16.174;2023-01-30T01:55:12;11.60;;;6.90;;
38859;SDS011;24609;48.316;16.174;2023-01-30T01:57:40;10.80;;;6.72;;
38859;SDS011;24609;48.316;16.174;2023-01-30T02:00:16;14.75;;;6.78;;
38859;SDS011;24609;48.316;16.174;2023-01-30T02:03:06;13.60;;;8.07;;
38859;SDS011;24609;48.316;16.174;2023-01-30T02:05:33;12.30;;;6.80;;
38859;SDS011;24609;48.316;16.174;2023-01-30T02:08:02;17.42;;;7.85;;
38859;SDS011;24609;48.316;16.174;2023-01-30T02:10:39;15.18;;;6.95;;
38859;SDS011;24609;48.316;16.174;2023-01-30T02:13:18;10.40;;;5.65;;
38859;SDS011;24609;48.316;16.174;2023-01-30T02:15:44;10.38;;;7.47;;
38859;SDS011;24609;48.316;16.174;2023-01-30T02:18:11;13.98;;;7.75;;
38859;SDS011;24609;48.316;16.174;2023-01-30T02:28:51;15.52;;;7.72;;
38859;SDS011;24609;48.316;16.174;2023-01-30T02:40:10;16.98;;;5.57;;
38859;SDS011;24609;48.316;16.174;2023-01-30T02:43:17;15.80;;;6.05;;
38859;SDS011;24609;48.316;16.174;2023-01-30T02:48:22;16.50;;;8.68;;
38859;SDS011;24609;48.316;16.174;2023-01-30T02:51:15;9.77;;;6.18;;
38859;SDS011;24609;48.316;16.174;2023-01-30T02:53:48;14.77;;;7.60;;
38859;SDS011;24609;48.316;16.174;2023-01-30T02:56:14;11.00;;;6.68;;
38859;SDS011;24609;48.316;16.174;2023-01-30T02:58:41;15.38;;;7.15;;
38859;SDS011;24609;48.316;16.174;2023-01-30T03:01:37;13.80;;;7.25;;
38859;SDS011;24609;48.316;16.174;2023-01-30T03:07:15;20.13;;;8.68;;
38859;SDS011;24609;48.316;16.174;2023-01-30T03:12:29;10.85;;;6.38;;
38859;SDS011;24609;48.316;16.174;2023-01-30T03:15:51;17.70;;;8.77;;
38859;SDS011;24609;48.316;16.174;2023-01-30T03:18:22;13.85;;;8.05;;
38859;SDS011;24609;48.316;16.174;2023-01-30T03:20:48;13.82;;;6.63;;
38859;SDS011;24609;48.316;16.174;2023-01-30T03:23:15;11.75;;;5.68;;
38859;SDS011;24609;48.316;16.174;2023-01-30T03:25:41;14.38;;;6.40;;
38859;SDS011;24609;48.316;16.174;2023-01-30T03:28:08;13.75;;;5.40;;
38859;SDS011;24609;48.316;16.174;2023-01-30T03:30:36;11.38;;;6.35;;
38859;SDS011;24609;48.316;16.174;2023-01-30T03:33:02;15.95;;;7.38;;
38859;SDS011;24609;48.316;16.174;2023-01-30T03:35:28;12.88;;;7.15;;
38859;SDS011;24609;48.316;16.174;2023-01-30T03:37:54;11.52;;;6.38;;
38859;SDS011;24609;48.316;16.174;2023-01-30T03:40:19;14.50;;;7.13;;
38859;SDS011;24609;48.316;16.174;2023-01-30T03:42:45;11.50;;;6.80;;
38859;SDS011;24609;48.316;16.174;2023-01-30T03:45:11;10.88;;;7.00;;
38859;SDS011;24609;48.316;16.174;2023-01-30T03:47:37;14.52;;;7.25;;
38859;SDS011;24609;48.316;16.174;2023-01-30T03:50:03;16.17;;;7.57;;
38859;SDS011;24609;48.316;16.174;2023-01-30T03:52:28;14.18;;;5.72;;
38859;SDS011;24609;48.316;16.174;2023-01-30T03:54:54;12.10;;;7.35;;
38859;SDS011;24609;48.316;16.174;2023-01-30T03:57:20;10.25;;;6.15;;
38859;SDS011;24609;48.316;16.174;2023-01-30T03:59:45;16.00;;;7.65;;
38859;SDS011;24609;48.316;16.174;2023-01-30T04:02:11;11.65;;;8.02;;
38859;SDS011;24609;48.316;16.174;2023-01-30T04:04:37;15.65;;;7.93;;
38859;SDS011;24609;48.316;16.174;2023-01-30T04:07:03;14.55;;;7.30;;
38859;SDS011;24609;48.316;16.174;2023-01-30T04:09:29;12.18;;;6.43;;
38859;SDS011;24609;48.316;16.174;2023-01-30T04:11:54;14.50;;;5.88;;
38859;SDS011;24609;48.316;16.174;2023-01-30T04:14:20;15.57;;;6.68;;
38859;SDS011;24609;48.316;16.174;2023-01-30T04:16:45;10.00;;;7.18;;
38859;SDS011;24609;48.316;16.174;2023-01-30T04:19:11;14.60;;;7.18;;
38859;SDS011;24609;48.316;16.174;2023-01-30T04:21:37;11.93;;;7.25;;
38859;SDS011;24609;48.316;16.174;2023-01-30T04:24:02;13.63;;;7.13;;
38859;SDS011;24609;48.316;16.174;2023-01-30T04:26:28;10.65;;;5.88;;
38859;SDS011;24609;48.316;16.174;2023-01-30T04:28:54;14.90;;;7.20;;
38859;SDS011;24609;48.316;16.174;2023-01-30T04:31:20;10.00;;;6.85;;
38859;SDS011;24609;48.316;16.174;2023-01-30T04:33:45;14.25;;;6.65;;
38859;SDS011;24609;48.316;16.174;2023-01-30T04:36:11;25.02;;;10.63;;
38859;SDS011;24609;48.316;16.174;2023-01-30T04:38:37;17.10;;;8.68;;
38859;SDS011;24609;48.316;16.174;2023-01-30T04:41:03;10.65;;;7.07;;
38859;SDS011;24609;48.316;16.174;2023-01-30T04:43:29;15.43;;;8.50;;
38859;SDS011;24609;48.316;16.174;2023-01-30T04:45:55;12.63;;;6.40;;
38859;SDS011;24609;48.316;16.174;2023-01-30T04:48:21;24.15;;;7.50;;
38859;SDS011;24609;48.316;16.174;2023-01-30T04:50:49;10.77;;;6.53;;
38859;SDS011;24609;48.316;16.174;2023-01-30T04:53:17;16.07;;;7.97;;
38859;SDS011;24609;48.316;16.174;2023-01-30T04:55:44;10.38;;;5.93;;
38859;SDS011;24609;48.316;16.174;2023-01-30T04:58:10;17.95;;;8.20;;
38859;SDS011;24609;48.316;16.174;2023-01-30T05:00:35;15.27;;;7.57;;
38859;SDS011;24609;48.316;16.174;2023-01-30T05:03:01;16.00;;;7.80;;
38859;SDS011;24609;48.316;16.174;2023-01-30T05:05:27;13.05;;;6.43;;
38859;SDS011;24609;48.316;16.174;2023-01-30T05:07:53;15.05;;;9.13;;
38859;SDS011;24609;48.316;16.174;2023-01-30T05:10:19;13.98;;;6.95;;
38859;SDS011;24609;48.316;16.174;2023-01-30T05:12:45;18.65;;;7.65;;
38859;SDS011;24609;48.316;16.174;2023-01-30T05:15:11;14.13;;;8.05;;
38859;SDS011;24609;48.316;16.174;2023-01-30T05:17:38;18.65;;;7.85;;
38859;SDS011;24609;48.316;16.174;2023-01-30T05:20:04;12.90;;;7.40;;
38859;SDS011;24609;48.316;16.174;2023-01-30T05:22:31;19.75;;;6.95;;
38859;SDS011;24609;48.316;16.174;2023-01-30T05:24:57;14.23;;;7.43;;
38859;SDS011;24609;48.316;16.174;2023-01-30T05:27:23;23.58;;;10.65;;
38859;SDS011;24609;48.316;16.174;2023-01-30T05:29:48;17.85;;;8.20;;
38859;SDS011;24609;48.316;16.174;2023-01-30T05:32:14;10.18;;;7.28;;
38859;SDS011;24609;48.316;16.174;2023-01-30T05:34:41;18.88;;;8.90;;
38859;SDS011;24609;48.316;16.174;2023-01-30T05:37:07;25.52;;;10.88;;
38859;SDS011;24609;48.316;16.174;2023-01-30T05:39:33;18.35;;;8.40;;
38859;SDS011;24609;48.316;16.174;2023-01-30T05:41:59;26.23;;;11.23;;
38859;SDS011;24609;48.316;16.174;2023-01-30T05:44:25;16.50;;;8.52;;
38859;SDS011;24609;48.316;16.174;2023-01-30T05:46:50;20.83;;;8.75;;
38859;SDS011;24609;48.316;16.174;2023-01-30T05:49:16;17.25;;;7.47;;
38859;SDS011;24609;48.316;16.174;2023-01-30T05:51:42;21.00;;;10.85;;
38859;SDS011;24609;48.316;16.174;2023-01-30T05:54:07;15.55;;;8.68;;
38859;SDS011;24609;48.316;16.174;2023-01-30T05:56:33;25.35;;;9.77;;
38859;SDS011;24609;48.316;16.174;2023-01-30T05:58:59;19.02;;;8.68;;
38859;SDS011;24609;48.316;16.174;2023-01-30T06:01:26;14.77;;;8.07;;
38859;SDS011;24609;48.316;16.174;2023-01-30T06:03:52;23.27;;;9.48;;
38859;SDS011;24609;48.316;16.174;2023-01-30T06:06:18;15.43;;;8.77;;
38859;SDS011;24609;48.316;16.174;2023-01-30T06:08:45;17.00;;;9.40;;
38859;SDS011;24609;48.316;16.174;2023-01-30T06:11:13;17.55;;;9.50;;
38859;SDS011;24609;48.316;16.174;2023-01-30T06:13:39;20.20;;;9.85;;
38859;SDS011;24609;48.316;16.174;2023-01-30T06:16:06;16.60;;;9.27;;
38859;SDS011;24609;48.316;16.174;2023-01-30T06:18:34;17.75;;;8.00;;
38859;SDS011;24609;48.316;16.174;2023-01-30T06:21:00;14.45;;;6.53;;
38859;SDS011;24609;48.316;16.174;2023-01-30T06:23:25;18.77;;;7.50;;
38859;SDS011;24609;48.316;16.174;2023-01-30T06:25:52;22.60;;;9.95;;
38859;SDS011;24609;48.316;16.174;2023-01-30T06:28:20;23.23;;;9.98;;
38859;SDS011;24609;48.316;16.174;2023-01-30T06:30:46;13.32;;;6.75;;
38859;SDS011;24609;48.316;16.174;2023-01-30T06:33:12;14.85;;;8.55;;
38859;SDS011;24609;48.316;16.174;2023-01-30T06:35:39;14.95;;;8.07;;
38859;SDS011;24609;48.316;16.174;2023-01-30T06:38:06;12.50;;;6.53;;
38859;SDS011;24609;48.316;16.174;2023-01-30T06:40:35;21.92;;;10.93;;
38859;SDS011;24609;48.316;16.174;2023-01-30T06:43:02;21.25;;;9.63;;
38859;SDS011;24609;48.316;16.174;2023-01-30T06:45:28;15.30;;;8.48;;
38859;SDS011;24609;48.316;16.174;2023-01-30T06:47:54;21.30;;;10.63;;
38859;SDS011;24609;48.316;16.174;2023-01-30T06:50:21;20.40;;;10.63;;
38859;SDS011;24609;48.316;16.174;2023-01-30T06:52:49;16.47;;;8.67;;
38859;SDS011;24609;48.316;16.174;2023-01-30T06:55:16;17.42;;;8.65;;
38859;SDS011;24609;48.316;16.174;2023-01-30T06:57:46;14.95;;;8.40;;
38859;SDS011;24609;48.316;16.174;2023-01-30T07:00:14;15.38;;;7.57;;
38859;SDS011;24609;48.316;16.174;2023-01-30T07:02:42;13.77;;;8.13;;
38859;SDS011;24609;48.316;16.174;2023-01-30T07:05:08;20.45;;;11.70;;
38859;SDS011;24609;48.316;16.174;2023-01-30T07:07:35;17.70;;;9.05;;
38859;SDS011;24609;48.316;16.174;2023-01-30T07:10:01;15.00;;;7.60;;
38859;SDS011;24609;48.316;16.174;2023-01-30T07:12:28;18.92;;;7.72;;
38859;SDS011;24609;48.316;16.174;2023-01-30T07:14:53;16.30;;;8.23;;
38859;SDS011;24609;48.316;16.174;2023-01-30T07:17:22;15.93;;;7.82;;
38859;SDS011;24609;48.316;16.174;2023-01-30T07:19:48;11.80;;;6.40;;
38859;SDS011;24609;48.316;16.174;2023-01-30T07:22:14;16.98;;;9.05;;
38859;SDS011;24609;48.316;16.174;2023-01-30T07:24:40;23.80;;;8.75;;
38859;SDS011;24609;48.316;16.174;2023-01-30T07:27:10;11.90;;;6.53;;
38859;SDS011;24609;48.316;16.174;2023-01-30T07:29:37;19.65;;;8.23;;
38859;SDS011;24609;48.316;16.174;2023-01-30T07:32:04;20.15;;;8.80;;
38859;SDS011;24609;48.316;16.174;2023-01-30T07:34:30;16.38;;;8.65;;
38859;SDS011;24609;48.316;16.174;2023-01-30T07:36:56;14.88;;;8.93;;
38859;SDS011;24609;48.316;16.174;2023-01-30T07:39:22;17.35;;;9.10;;
38859;SDS011;24609;48.316;16.174;2023-01-30T07:41:47;20.38;;;8.82;;
38859;SDS011;24609;48.316;16.174;2023-01-30T07:44:13;16.45;;;6.78;;
38859;SDS011;24609;48.316;16.174;2023-01-30T07:46:39;15.48;;;7.65;;
38859;SDS011;24609;48.316;16.174;2023-01-30T07:49:05;17.13;;;8.02;;
38859;SDS011;24609;48.316;16.174;2023-01-30T07:51:31;14.40;;;7.18;;
38859;SDS011;24609;48.316;16.174;2023-01-30T07:53:57;22.92;;;7.78;;
38859;SDS011;24609;48.316;16.174;2023-01-30T07:56:23;19.40;;;7.38;;
38859;SDS011;24609;48.316;16.174;2023-01-30T07:58:49;16.48;;;8.80;;
38859;SDS011;24609;48.316;16.174;2023-01-30T08:01:15;15.55;;;7.93;;
38859;SDS011;24609;48.316;16.174;2023-01-30T08:03:41;21.88;;;9.75;;
38859;SDS011;24609;48.316;16.174;2023-01-30T08:06:09;16.27;;;7.38;;
38859;SDS011;24609;48.316;16.174;2023-01-30T08:08:36;13.52;;;6.53;;
38859;SDS011;24609;48.316;16.174;2023-01-30T08:11:02;12.77;;;8.35;;
38859;SDS011;24609;48.316;16.174;2023-01-30T08:13:28;18.60;;;9.43;;
38859;SDS011;24609;48.316;16.174;2023-01-30T08:15:53;15.77;;;8.95;;
38859;SDS011;24609;48.316;16.174;2023-01-30T08:18:19;17.55;;;8.57;;
38859;SDS011;24609;48.316;16.174;2023-01-30T08:20:45;16.45;;;6.25;;
38859;SDS011;24609;48.316;16.174;2023-01-30T08:23:10;15.25;;;7.20;;
38859;SDS011;24609;48.316;16.174;2023-01-30T08:25:36;12.70;;;8.15;;
38859;SDS011;24609;48.316;16.174;2023-01-30T08:28:02;16.48;;;8.52;;
38859;SDS011;24609;48.316;16.174;2023-01-30T08:30:28;16.73;;;8.73;;
38859;SDS011;24609;48.316;16.174;2023-01-30T08:32:55;13.77;;;6.38;;
38859;SDS011;24609;48.316;16.174;2023-01-30T08:35:21;18.10;;;7.30;;
38859;SDS011;24609;48.316;16.174;2023-01-30T08:37:47;13.32;;;7.47;;
38859;SDS011;24609;48.316;16.174;2023-01-30T08:40:13;13.55;;;7.47;;
38859;SDS011;24609;48.316;16.174;2023-01-30T08:42:39;14.18;;;7.13;;
38859;SDS011;24609;48.316;16.174;2023-01-30T08:45:07;13.65;;;7.50;;
38859;SDS011;24609;48.316;16.174;2023-01-30T08:47:33;15.68;;;7.75;;
38859;SDS011;24609;48.316;16.174;2023-01-30T08:49:59;13.57;;;7.07;;
38859;SDS011;24609;48.316;16.174;2023-01-30T08:52:25;13.50;;;6.60;;
38859;SDS011;24609;48.316;16.174;2023-01-30T08:54:51;15.52;;;6.97;;
38859;SDS011;24609;48.316;16.174;2023-01-30T08:57:16;9.23;;;4.82;;
38859;SDS011;24609;48.316;16.174;2023-01-30T08:59:42;13.15;;;7.70;;
38859;SDS011;24609;48.316;16.174;2023-01-30T09:02:09;11.57;;;6.35;;
38859;SDS011;24609;48.316;16.174;2023-01-30T09:04:35;15.90;;;7.32;;
38859;SDS011;24609;48.316;16.174;2023-01-30T09:07:01;13.05;;;7.28;;
38859;SDS011;24609;48.316;16.174;2023-01-30T09:09:27;13.07;;;6.15;;
38859;SDS011;24609;48.316;16.174;2023-01-30T09:11:54;16.58;;;7.82;;
38859;SDS011;24609;48.316;16.174;2023-01-30T09:14:20;18.17;;;7.35;;
38859;SDS011;24609;48.316;16.174;2023-01-30T09:16:46;17.88;;;6.95;;
38859;SDS011;24609;48.316;16.174;2023-01-30T09:19:12;16.58;;;6.90;;
38859;SDS011;24609;48.316;16.174;2023-01-30T09:21:38;13.70;;;7.30;;
38859;SDS011;24609;48.316;16.174;2023-01-30T09:24:04;10.10;;;5.60;;
38859;SDS011;24609;48.316;16.174;2023-01-30T09:26:30;13.32;;;6.95;;
38859;SDS011;24609;48.316;16.174;2023-01-30T09:28:56;12.32;;;5.45;;
38859;SDS011;24609;48.316;16.174;2023-01-30T09:31:22;16.35;;;6.03;;
38859;SDS011;24609;48.316;16.174;2023-01-30T09:33:47;11.77;;;6.30;;
38859;SDS011;24609;48.316;16.174;2023-01-30T09:36:13;12.45;;;5.75;;
38859;SDS011;24609;48.316;16.174;2023-01-30T09:38:39;11.00;;;5.65;;
38859;SDS011;24609;48.316;16.174;2023-01-30T09:54:49;13.55;;;6.75;;
38859;SDS011;24609;48.316;16.174;2023-01-30T09:57:20;15.55;;;7.07;;
38859;SDS011;24609;48.316;16.174;2023-01-30T10:08:23;11.93;;;6.25;;
38859;SDS011;24609;48.316;16.174;2023-01-30T10:10:58;13.65;;;7.20;;
38859;SDS011;24609;48.316;16.174;2023-01-30T10:13:30;20.02;;;7.80;;
38859;SDS011;24609;48.316;16.174;2023-01-30T10:26:26;11.27;;;4.38;;
38859;SDS011;24609;48.316;16.174;2023-01-30T10:29:01;8.20;;;3.78;;
38859;SDS011;24609;48.316;16.174;2023-01-30T10:31:53;8.47;;;4.50;;
38859;SDS011;24609;48.316;16.174;2023-01-30T10:34:27;5.70;;;3.13;;
38859;SDS011;24609;48.316;16.174;2023-01-30T10:45:56;4.90;;;3.50;;
38859;SDS011;24609;48.316;16.174;2023-01-30T10:48:41;10.00;;;4.38;;
38859;SDS011;24609;48.316;16.174;2023-01-30T10:51:13;6.68;;;3.95;;
38859;SDS011;24609;48.316;16.174;2023-01-30T10:53:50;5.30;;;3.25;;
38859;SDS011;24609;48.316;16.174;2023-01-30T10:56:50;8.73;;;3.83;;
38859;SDS011;24609;48.316;16.174;2023-01-30T11:02:06;7.10;;;4.07;;
38859;SDS011;24609;48.316;16.174;2023-01-30T11:04:41;9.10;;;4.68;;
38859;SDS011;24609;48.316;16.174;2023-01-30T11:07:12;8.82;;;3.42;;
38859;SDS011;24609;48.316;16.174;2023-01-30T11:09:42;7.53;;;4.07;;
38859;SDS011;24609;48.316;16.174;2023-01-30T11:12:10;6.90;;;3.70;;
38859;SDS011;24609;48.316;16.174;2023-01-30T11:17:29;11.45;;;4.15;;
38859;SDS011;24609;48.316;16.174;2023-01-30T11:20:13;10.07;;;4.07;;
38859;SDS011;24609;48.316;16.174;2023-01-30T11:22:51;7.80;;;3.65;;
38859;SDS011;24609;48.316;16.174;2023-01-30T11:25:33;12.98;;;4.20;;
38859;SDS011;24609;48.316;16.174;2023-01-30T11:28:12;8.75;;;4.20;;
38859;SDS011;24609;48.316;16.174;2023-01-30T11:30:43;8.70;;;3.88;;
38859;SDS011;24609;48.316;16.174;2023-01-30T11:33:17;10.70;;;4.28;;
38859;SDS011;24609;48.316;16.174;2023-01-30T11:35:53;8.88;;;4.47;;
38859;SDS011;24609;48.316;16.174;2023-01-30T11:38:22;8.98;;;4.35;;
38859;SDS011;24609;48.316;16.174;2023-01-30T11:40:59;10.07;;;3.95;;
38859;SDS011;24609;48.316;16.174;2023-01-30T11:43:32;7.43;;;3.70;;
38859;SDS011;24609;48.316;16.174;2023-01-30T11:46:01;10.27;;;4.82;;
38859;SDS011;24609;48.316;16.174;2023-01-30T11:48:29;6.93;;;3.83;;
38859;SDS011;24609;48.316;16.174;2023-01-30T11:51:02;9.88;;;4.03;;
38859;SDS011;24609;48.316;16.174;2023-01-30T11:56:07;7.47;;;3.37;;
38859;SDS011;24609;48.316;16.174;2023-01-30T11:58:40;10.55;;;4.72;;
38859;SDS011;24609;48.316;16.174;2023-01-30T12:01:10;6.13;;;3.15;;
38859;SDS011;24609;48.316;16.174;2023-01-30T12:03:38;7.80;;;3.92;;
38859;SDS011;24609;48.316;16.174;2023-01-30T12:06:20;7.03;;;4.07;;
38859;SDS011;24609;48.316;16.174;2023-01-30T12:08:52;8.55;;;2.88;;
38859;SDS011;24609;48.316;16.174;2023-01-30T12:11:29;6.70;;;3.35;;
38859;SDS011;24609;48.316;16.174;2023-01-30T12:19:25;8.75;;;3.78;;
38859;SDS011;24609;48.316;16.174;2023-01-30T12:22:06;8.15;;;4.35;;
38859;SDS011;24609;48.316;16.174;2023-01-30T12:25:30;7.72;;;4.07;;
38859;SDS011;24609;48.316;16.174;2023-01-30T12:30:38;6.10;;;3.13;;
38859;SDS011;24609;48.316;16.174;2023-01-30T12:33:10;10.20;;;4.50;;
38859;SDS011;24609;48.316;16.174;2023-01-30T12:35:43;6.63;;;3.85;;
38859;SDS011;24609;48.316;16.174;2023-01-30T12:38:17;10.30;;;4.65;;
38859;SDS011;24609;48.316;16.174;2023-01-30T12:40:52;10.80;;;4.35;;
38859;SDS011;24609;48.316;16.174;2023-01-30T12:59:06;10.55;;;3.65;;
38859;SDS011;24609;48.316;16.174;2023-01-30T13:01:46;9.27;;;4.07;;
38859;SDS011;24609;48.316;16.174;2023-01-30T13:07:08;10.52;;;3.70;;
38859;SDS011;24609;48.316;16.174;2023-01-30T13:09:55;8.70;;;3.77;;
38859;SDS011;24609;48.316;16.174;2023-01-30T13:15:30;5.20;;;2.83;;
38859;SDS011;24609;48.316;16.174;2023-01-30T13:23:59;7.25;;;3.63;;
38859;SDS011;24609;48.316;16.174;2023-01-30T13:26:35;5.50;;;2.22;;
38859;SDS011;24609;48.316;16.174;2023-01-30T13:29:03;3.40;;;2.65;;
38859;SDS011;24609;48.316;16.174;2023-01-30T13:31:51;5.97;;;2.63;;
38859;SDS011;24609;48.316;16.174;2023-01-30T13:36:51;6.88;;;2.97;;
38859;SDS011;24609;48.316;16.174;2023-01-30T13:42:11;8.00;;;3.35;;
38859;SDS011;24609;48.316;16.174;2023-01-30T13:44:44;6.38;;;2.70;;
38859;SDS011;24609;48.316;16.174;2023-01-30T13:49:44;6.35;;;2.92;;
38859;SDS011;24609;48.316;16.174;2023-01-30T13:52:25;7.72;;;4.20;;
38859;SDS011;24609;48.316;16.174;2023-01-30T13:54:59;2.83;;;2.53;;
38859;SDS011;24609;48.316;16.174;2023-01-30T13:57:44;5.80;;;3.33;;
38859;SDS011;24609;48.316;16.174;2023-01-30T14:00:32;3.85;;;2.75;;
38859;SDS011;24609;48.316;16.174;2023-01-30T14:08:20;6.28;;;3.30;;
38859;SDS011;24609;48.316;16.174;2023-01-30T14:10:51;7.88;;;3.33;;
38859;SDS011;24609;48.316;16.174;2023-01-30T14:13:19;7.00;;;3.42;;
38859;SDS011;24609;48.316;16.174;2023-01-30T14:16:05;5.80;;;3.80;;
38859;SDS011;24609;48.316;16.174;2023-01-30T14:18:31;6.53;;;3.88;;
38859;SDS011;24609;48.316;16.174;2023-01-30T14:21:19;6.60;;;2.85;;
38859;SDS011;24609;48.316;16.174;2023-01-30T14:24:01;5.80;;;3.15;;
38859;SDS011;24609;48.316;16.174;2023-01-30T14:32:01;5.18;;;2.63;;
38859;SDS011;24609;48.316;16.174;2023-01-30T14:39:59;4.82;;;3.13;;
38859;SDS011;24609;48.316;16.174;2023-01-30T14:42:27;5.72;;;3.17;;
38859;SDS011;24609;48.316;16.174;2023-01-30T14:45:04;4.55;;;2.85;;
38859;SDS011;24609;48.316;16.174;2023-01-30T14:48:19;5.65;;;3.03;;
38859;SDS011;24609;48.316;16.174;2023-01-30T14:51:10;6.63;;;2.97;;
38859;SDS011;24609;48.316;16.174;2023-01-30T15:00:04;7.05;;;3.08;;
38859;SDS011;24609;48.316;16.174;2023-01-30T15:09:56;6.10;;;3.50;;
38859;SDS011;24609;48.316;16.174;2023-01-30T15:15:19;6.65;;;3.20;;
38859;SDS011;24609;48.316;16.174;2023-01-30T15:18:02;6.95;;;4.05;;
38859;SDS011;24609;48.316;16.174;2023-01-30T15:20:44;4.72;;;3.13;;
38859;SDS011;24609;48.316;16.174;2023-01-30T15:31:23;7.32;;;4.00;;
38859;SDS011;24609;48.316;16.174;2023-01-30T15:33:52;8.47;;;4.60;;
38859;SDS011;24609;48.316;16.174;2023-01-30T15:36:31;5.97;;;3.72;;
38859;SDS011;24609;48.316;16.174;2023-01-30T15:39:03;6.25;;;3.90;;
38859;SDS011;24609;48.316;16.174;2023-01-30T15:41:37;8.88;;;3.53;;
38859;SDS011;24609;48.316;16.174;2023-01-30T15:52:17;5.78;;;3.15;;
38859;SDS011;24609;48.316;16.174;2023-01-30T15:57:18;6.50;;;4.18;;
38859;SDS011;24609;48.316;16.174;2023-01-30T15:59:55;6.70;;;3.83;;
38859;SDS011;24609;48.316;16.174;2023-01-30T16:02:24;7.03;;;3.15;;
38859;SDS011;24609;48.316;16.174;2023-01-30T16:05:03;9.63;;;4.20;;
38859;SDS011;24609;48.316;16.174;2023-01-30T16:07:41;7.38;;;4.05;;
38859;SDS011;24609;48.316;16.174;2023-01-30T16:10:27;10.40;;;4.60;;
38859;SDS011;24609;48.316;16.174;2023-01-30T16:12:55;5.90;;;2.85;;
38859;SDS011;24609;48.316;16.174;2023-01-30T16:15:30;8.68;;;4.35;;
38859;SDS011;24609;48.316;16.174;2023-01-30T16:20:45;7.30;;;3.95;;
38859;SDS011;24609;48.316;16.174;2023-01-30T16:23:17;9.10;;;4.78;;
38859;SDS011;24609;48.316;16.174;2023-01-30T16:26:05;7.70;;;4.20;;
38859;SDS011;24609;48.316;16.174;2023-01-30T16:28:33;9.20;;;4.05;;
38859;SDS011;24609;48.316;16.174;2023-01-30T16:31:00;6.30;;;3.80;;
38859;SDS011;24609;48.316;16.174;2023-01-30T16:33:28;6.07;;;3.47;;
38859;SDS011;24609;48.316;16.174;2023-01-30T16:36:00;8.15;;;4.00;;
38859;SDS011;24609;48.316;16.174;2023-01-30T16:38:33;5.80;;;3.17;;
38859;SDS011;24609;48.316;16.174;2023-01-30T16:41:01;7.40;;;3.70;;
38859;SDS011;24609;48.316;16.174;2023-01-30T16:43:28;7.25;;;3.15;;
38859;SDS011;24609;48.316;16.174;2023-01-30T16:49:02;6.53;;;3.05;;
38859;SDS011;24609;48.316;16.174;2023-01-30T16:51:29;5.05;;;3.20;;
38859;SDS011;24609;48.316;16.174;2023-01-30T16:53:59;3.83;;;3.03;;
38859;SDS011;24609;48.316;16.174;2023-01-30T16:56:27;5.25;;;2.85;;
38859;SDS011;24609;48.316;16.174;2023-01-30T16:58:56;4.20;;;2.63;;
38859;SDS011;24609;48.316;16.174;2023-01-30T17:01:33;3.10;;;2.22;;
38859;SDS011;24609;48.316;16.174;2023-01-30T17:04:02;5.80;;;3.72;;
38859;SDS011;24609;48.316;16.174;2023-01-30T17:09:30;6.80;;;3.08;;
38859;SDS011;24609;48.316;16.174;2023-01-30T17:11:59;3.50;;;2.28;;
38859;SDS011;24609;48.316;16.174;2023-01-30T17:14:25;7.40;;;3.55;;
38859;SDS011;24609;48.316;16.174;2023-01-30T17:16:58;7.55;;;3.78;;
38859;SDS011;24609;48.316;16.174;2023-01-30T17:19:30;6.90;;;2.80;;
38859;SDS011;24609;48.316;16.174;2023-01-30T17:21:56;7.25;;;3.55;;
38859;SDS011;24609;48.316;16.174;2023-01-30T17:24:24;6.70;;;3.15;;
38859;SDS011;24609;48.316;16.174;2023-01-30T17:26:52;4.82;;;2.95;;
38859;SDS011;24609;48.316;16.174;2023-01-30T17:29:23;7.60;;;2.95;;
38859;SDS011;24609;48.316;16.174;2023-01-30T17:31:49;5.75;;;3.88;;
38859;SDS011;24609;48.316;16.174;2023-01-30T17:34:16;5.20;;;3.00;;
38859;SDS011;24609;48.316;16.174;2023-01-30T17:36:44;8.15;;;3.40;;
38859;SDS011;24609;48.316;16.174;2023-01-30T17:39:14;4.43;;;2.88;;
38859;SDS011;24609;48.316;16.174;2023-01-30T17:41:42;4.35;;;3.65;;
38859;SDS011;24609;48.316;16.174;2023-01-30T17:44:08;5.32;;;3.05;;